createdAt,value
2019-02-14T00:00:47.131Z,9.77
2019-02-14T00:03:16.434Z,9.60
2019-02-14T00:05:45.894Z,7.60
2019-02-14T00:08:15.258Z,6.53
2019-02-14T00:10:44.826Z,8.93
2019-02-14T00:13:14.153Z,8.80
2019-02-14T00:15:43.614Z,6.70
2019-02-14T00:18:12.982Z,6.63
2019-02-14T00:20:42.415Z,6.70
2019-02-14T00:23:11.755Z,6.03
2019-02-14T00:25:41.158Z,6.63
2019-02-14T00:28:10.758Z,7.43
2019-02-14T00:30:40.111Z,8.30
2019-02-14T00:33:09.642Z,5.97
2019-02-14T00:35:39.057Z,5.97
2019-02-14T00:38:08.526Z,7.33
2019-02-14T00:40:37.918Z,8.17
2019-02-14T00:43:07.351Z,7.90
2019-02-14T00:45:36.677Z,5.37
2019-02-14T00:48:06.090Z,6.63
2019-02-14T00:50:35.531Z,5.23
2019-02-14T00:53:04.881Z,5.10
2019-02-14T00:55:34.345Z,8.47
2019-02-14T00:58:03.714Z,6.33
2019-02-14T01:00:33.141Z,5.03
2019-02-14T01:03:02.490Z,7.37
2019-02-14T01:05:33.822Z,4.13
2019-02-14T01:08:03.139Z,7.37
2019-02-14T01:10:32.537Z,6.10
2019-02-14T01:13:01.996Z,4.27
2019-02-14T01:15:31.746Z,7.23
2019-02-14T01:18:01.116Z,7.70
2019-02-14T01:21:24.540Z,7.70
2019-02-14T01:23:54.015Z,7.03
2019-02-14T01:26:23.587Z,4.63
2019-02-14T01:28:53.276Z,7.23
2019-02-14T01:31:22.753Z,6.80
2019-02-14T01:33:52.293Z,6.27
2019-02-14T01:36:21.760Z,7.10
2019-02-14T01:38:51.160Z,6.33
2019-02-14T01:41:20.630Z,4.97
2019-02-14T01:43:50.014Z,6.23
2019-02-14T01:46:19.362Z,5.63
2019-02-14T01:48:48.919Z,6.83
2019-02-14T01:51:18.320Z,7.93
2019-02-14T01:53:47.725Z,6.33
2019-02-14T01:56:17.079Z,6.27
2019-02-14T01:58:46.482Z,5.43
2019-02-14T02:01:15.883Z,5.00
2019-02-14T02:03:45.277Z,6.47
2019-02-14T02:06:14.738Z,5.93
2019-02-14T02:08:44.126Z,7.30
2019-02-14T02:11:13.483Z,6.97
2019-02-14T02:13:42.950Z,4.23
2019-02-14T02:16:12.279Z,5.20
2019-02-14T02:18:41.759Z,6.07
2019-02-14T02:21:11.097Z,7.83
2019-02-14T02:23:40.494Z,7.53
2019-02-14T02:26:09.989Z,5.87
2019-02-14T02:28:39.398Z,4.77
2019-02-14T02:31:08.867Z,5.00
2019-02-14T02:33:38.326Z,7.17
2019-02-14T02:36:07.722Z,8.27
2019-02-14T02:38:37.259Z,7.10
2019-02-14T02:41:06.702Z,7.47
2019-02-14T02:43:36.155Z,4.67
2019-02-14T02:46:05.579Z,6.43
2019-02-14T02:48:34.914Z,9.27
2019-02-14T02:51:04.378Z,7.63
2019-02-14T02:53:33.671Z,5.60
2019-02-14T02:56:03.077Z,7.50
2019-02-14T02:58:32.414Z,3.43
2019-02-14T03:01:01.921Z,6.70
2019-02-14T03:03:31.338Z,6.33
2019-02-14T03:06:08.630Z,4.20
2019-02-14T03:08:31.824Z,4.63
2019-02-14T03:11:01.158Z,4.40
2019-02-14T03:13:30.871Z,3.70
2019-02-14T03:16:00.178Z,4.60
2019-02-14T03:18:29.577Z,6.33
2019-02-14T03:20:59.038Z,6.30
2019-02-14T03:23:28.386Z,6.53
2019-02-14T03:25:57.838Z,6.20
2019-02-14T03:28:27.236Z,5.70
2019-02-14T03:30:56.651Z,5.70
2019-02-14T03:33:26.062Z,5.30
2019-02-14T03:35:55.406Z,6.60
2019-02-14T03:38:24.826Z,7.60
2019-02-14T03:40:54.247Z,6.93
2019-02-14T03:43:23.602Z,6.47
2019-02-14T03:45:53.059Z,5.67
2019-02-14T03:48:22.403Z,5.43
2019-02-14T03:50:51.876Z,5.93
2019-02-14T03:53:21.204Z,6.00
2019-02-14T03:55:50.459Z,4.60
2019-02-14T03:58:20.110Z,3.43
2019-02-14T04:00:49.531Z,4.70
2019-02-14T04:03:18.926Z,4.03
2019-02-14T04:05:48.347Z,5.00
2019-02-14T04:08:17.766Z,6.23
2019-02-14T04:10:47.458Z,5.40
2019-02-14T04:13:16.836Z,5.40
2019-02-14T04:15:46.226Z,6.50
2019-02-14T04:18:15.593Z,6.10
2019-02-14T04:20:44.930Z,5.60
2019-02-14T04:23:14.238Z,5.90
2019-02-14T04:25:43.698Z,4.27
2019-02-14T04:28:13.034Z,5.97
2019-02-14T04:30:42.443Z,7.07
2019-02-14T04:33:12.055Z,5.60
2019-02-14T04:35:41.448Z,4.13
2019-02-14T04:38:10.782Z,7.10
2019-02-14T04:40:40.249Z,8.27
2019-02-14T04:43:09.711Z,5.40
2019-02-14T04:45:39.102Z,7.43
2019-02-14T04:48:08.506Z,5.40
2019-02-14T04:50:37.829Z,6.03
2019-02-14T04:53:07.341Z,4.73
2019-02-14T04:55:36.670Z,2.83
2019-02-14T04:58:06.053Z,4.43
2019-02-14T05:00:35.410Z,7.63
2019-02-14T05:03:04.754Z,6.77
2019-02-14T05:05:34.110Z,6.43
2019-02-14T05:08:03.469Z,7.13
2019-02-14T05:10:32.923Z,4.30
2019-02-14T05:13:02.269Z,4.90
2019-02-14T05:15:31.722Z,2.80
2019-02-14T05:18:01.033Z,7.27
2019-02-14T05:20:30.537Z,3.53
2019-02-14T05:22:59.875Z,4.63
2019-02-14T05:25:29.352Z,7.47
2019-02-14T05:27:58.688Z,7.47
2019-02-14T05:30:28.154Z,4.00
2019-02-14T05:32:57.502Z,4.10
2019-02-14T05:35:26.921Z,6.17
2019-02-14T05:37:56.329Z,4.53
2019-02-14T05:40:25.754Z,5.07
2019-02-14T05:42:55.140Z,6.67
2019-02-14T05:45:24.494Z,7.20
2019-02-14T05:47:53.954Z,6.90
2019-02-14T05:50:23.292Z,8.30
2019-02-14T05:52:52.737Z,9.93
2019-02-14T05:55:22.162Z,4.10
2019-02-14T05:57:51.503Z,11.27
2019-02-14T06:00:20.919Z,12.33
2019-02-14T06:02:50.376Z,13.50
2019-02-14T06:05:19.770Z,9.27
2019-02-14T06:07:49.103Z,23.50
2019-02-14T06:10:18.418Z,14.17
2019-02-14T06:12:47.887Z,16.07
2019-02-14T06:15:17.274Z,10.20
2019-02-14T06:17:46.818Z,13.87
2019-02-14T06:20:16.228Z,10.93
2019-02-14T06:22:45.678Z,12.87
2019-02-14T06:25:15.094Z,9.90
2019-02-14T06:27:44.499Z,10.57
2019-02-14T06:30:14.441Z,11.13
2019-02-14T06:32:43.844Z,14.73
2019-02-14T06:35:13.309Z,15.67
2019-02-14T06:37:42.802Z,13.33
2019-02-14T06:40:12.524Z,14.27
2019-02-14T06:42:42.996Z,11.57
2019-02-14T06:45:13.445Z,10.77
2019-02-14T06:47:42.826Z,10.93
2019-02-14T06:50:12.248Z,12.63
2019-02-14T06:52:45.671Z,11.53
2019-02-14T06:55:15.243Z,10.47
2019-02-14T06:57:44.617Z,11.33
2019-02-14T07:00:15.453Z,14.33
2019-02-14T07:02:44.935Z,10.80
2019-02-14T07:05:14.293Z,12.93
2019-02-14T07:07:43.740Z,10.37
2019-02-14T07:10:13.173Z,9.37
2019-02-14T07:12:42.610Z,9.33
2019-02-14T07:15:12.368Z,10.90
2019-02-14T07:17:41.778Z,8.87
2019-02-14T07:20:12.942Z,9.33
2019-02-14T07:22:42.785Z,9.40
2019-02-14T07:25:12.537Z,7.63
2019-02-14T07:27:41.987Z,10.73
2019-02-14T07:30:14.408Z,4.23
2019-02-14T07:32:43.863Z,10.53
2019-02-14T07:35:13.252Z,6.63
2019-02-14T07:37:42.677Z,5.90
2019-02-14T07:40:13.191Z,12.63
2019-02-14T07:42:42.705Z,12.50
2019-02-14T07:45:13.693Z,9.33
2019-02-14T07:47:43.110Z,10.40
2019-02-14T07:50:12.586Z,13.77
2019-02-14T07:52:41.951Z,9.87
2019-02-14T07:55:11.364Z,11.87
2019-02-14T07:57:40.883Z,12.30
2019-02-14T08:00:12.475Z,12.63
2019-02-14T08:02:41.902Z,10.00
2019-02-14T08:05:11.874Z,11.43
2019-02-14T08:07:41.331Z,10.70
2019-02-14T08:10:12.379Z,6.87
2019-02-14T08:12:41.783Z,11.63
2019-02-14T08:15:13.104Z,4.90
2019-02-14T08:17:42.630Z,8.60
2019-02-14T08:20:12.778Z,9.60
2019-02-14T08:22:42.164Z,9.40
2019-02-14T08:25:12.178Z,8.83
2019-02-14T08:27:41.822Z,6.30
2019-02-14T08:30:13.427Z,8.60
2019-02-14T08:32:42.727Z,7.57
2019-02-14T08:35:12.074Z,9.17
2019-02-14T08:37:45.718Z,7.93
2019-02-14T08:40:15.657Z,9.93
2019-02-14T08:42:45.177Z,7.73
2019-02-14T08:45:14.494Z,7.17
2019-02-14T08:47:43.929Z,10.10
2019-02-14T08:50:13.299Z,8.00
2019-02-14T08:52:42.771Z,7.80
2019-02-14T08:55:12.122Z,8.97
2019-02-14T08:57:41.662Z,8.83
2019-02-14T09:00:12.781Z,6.20
2019-02-14T09:02:42.364Z,8.87
2019-02-14T09:05:11.764Z,8.57
2019-02-14T09:07:41.154Z,8.70
2019-02-14T09:10:12.217Z,7.83
2019-02-14T09:12:41.595Z,8.30
2019-02-14T09:15:11.248Z,6.93
2019-02-14T09:17:43.402Z,8.77
2019-02-14T09:20:13.756Z,8.90
2019-02-14T09:22:43.102Z,9.13
2019-02-14T09:25:12.538Z,7.67
2019-02-14T09:27:41.903Z,10.57
2019-02-14T09:30:11.539Z,8.80
2019-02-14T09:32:40.906Z,9.00
2019-02-14T09:35:10.403Z,8.37
2019-02-14T09:37:39.774Z,12.37
2019-02-14T09:40:10.595Z,9.77
2019-02-14T09:42:40.113Z,8.03
2019-02-14T09:45:10.878Z,8.90
2019-02-14T09:47:40.250Z,10.03
2019-02-14T09:50:10.825Z,10.63
2019-02-14T09:52:41.045Z,9.40
2019-02-14T09:55:11.005Z,9.97
2019-02-14T09:57:40.470Z,12.30
2019-02-14T10:00:12.679Z,8.30
2019-02-14T10:02:42.173Z,8.80
2019-02-14T10:05:12.109Z,10.20
2019-02-14T10:07:41.518Z,8.60
2019-02-14T10:10:13.882Z,10.27
2019-02-14T10:12:43.326Z,11.40
2019-02-14T10:15:12.956Z,9.17
2019-02-14T10:17:42.434Z,10.23
2019-02-14T10:20:14.189Z,10.90
2019-02-14T10:22:43.669Z,11.20
2019-02-14T10:25:13.287Z,10.30
2019-02-14T10:27:42.626Z,6.10
2019-02-14T10:30:14.758Z,8.87
2019-02-14T10:32:44.112Z,11.20
2019-02-14T10:35:13.517Z,11.17
2019-02-14T10:37:43.136Z,6.93
2019-02-14T10:40:13.697Z,8.30
2019-02-14T10:42:43.035Z,8.30
2019-02-14T10:45:14.475Z,8.67
2019-02-14T10:47:43.873Z,7.40
2019-02-14T10:50:13.489Z,8.80
2019-02-14T10:52:42.904Z,8.50
2019-02-14T10:55:12.678Z,7.93
2019-02-14T10:57:42.126Z,7.57
2019-02-14T11:00:18.519Z,8.90
2019-02-14T11:02:48.873Z,7.57
2019-02-14T11:05:18.930Z,8.60
2019-02-14T11:07:48.296Z,10.23
2019-02-14T11:10:17.847Z,6.30
2019-02-14T11:12:47.241Z,8.23
2019-02-14T11:15:18.166Z,8.07
2019-02-14T11:17:49.058Z,9.20
2019-02-14T11:20:18.683Z,9.40
2019-02-14T11:22:48.920Z,10.70
2019-02-14T11:25:21.866Z,7.43
2019-02-14T11:27:51.286Z,8.20
2019-02-14T11:30:20.703Z,10.30
2019-02-14T11:32:50.106Z,8.87
2019-02-14T11:35:19.541Z,18.40
2019-02-14T11:37:48.892Z,9.93
2019-02-14T11:40:18.354Z,11.47
2019-02-14T11:42:47.826Z,6.83
2019-02-14T11:45:18.506Z,6.67
2019-02-14T11:47:47.991Z,9.47
2019-02-14T11:50:17.428Z,11.43
2019-02-14T11:52:46.915Z,10.97
2019-02-14T11:55:16.342Z,9.23
2019-02-14T11:57:45.802Z,8.13
2019-02-14T12:00:21.851Z,8.83
2019-02-14T12:02:55.581Z,9.03
2019-02-14T12:05:22.352Z,7.47
2019-02-14T12:07:52.049Z,11.93
2019-02-14T12:10:21.356Z,7.93
2019-02-14T12:12:50.749Z,8.50
2019-02-14T12:15:20.111Z,9.23
2019-02-14T12:17:49.450Z,7.73
2019-02-14T12:20:18.673Z,7.20
2019-02-14T12:22:48.264Z,6.43
2019-02-14T12:25:17.795Z,7.37
2019-02-14T12:27:47.230Z,6.10
2019-02-14T12:30:16.789Z,9.73
2019-02-14T12:32:46.463Z,6.50
2019-02-14T12:35:15.774Z,4.10
2019-02-14T12:37:45.271Z,3.70
2019-02-14T12:40:14.888Z,3.33
2019-02-14T12:42:44.321Z,9.40
2019-02-14T12:45:21.517Z,9.10
2019-02-14T12:47:46.714Z,6.90
2019-02-14T12:50:16.076Z,8.33
2019-02-14T12:52:45.461Z,5.53
2019-02-14T12:55:14.917Z,6.60
2019-02-14T12:57:44.355Z,11.20
2019-02-14T13:00:16.862Z,2.50
2019-02-14T13:02:46.271Z,3.40
2019-02-14T13:05:15.727Z,5.40
2019-02-14T13:07:45.108Z,5.57
2019-02-14T13:10:15.154Z,4.40
2019-02-14T13:12:44.600Z,7.83
2019-02-14T13:15:16.200Z,7.73
2019-02-14T13:17:45.574Z,9.13
2019-02-14T13:20:15.014Z,10.73
2019-02-14T13:22:44.361Z,10.77
2019-02-14T13:25:14.377Z,9.83
2019-02-14T13:27:43.887Z,11.60
2019-02-14T13:30:15.971Z,11.30
2019-02-14T13:32:45.330Z,9.10
2019-02-14T13:35:14.829Z,7.80
2019-02-14T13:37:44.324Z,9.73
2019-02-14T13:40:13.916Z,10.00
2019-02-14T13:42:43.270Z,8.63
2019-02-14T13:45:14.325Z,8.57
2019-02-14T13:47:43.691Z,10.20
2019-02-14T13:50:15.732Z,9.47
2019-02-14T13:52:44.246Z,13.57
2019-02-14T13:55:13.987Z,7.30
2019-02-14T13:57:43.386Z,10.20
2019-02-14T14:00:22.354Z,8.57
2019-02-14T14:02:51.982Z,10.70
2019-02-14T14:05:21.385Z,14.23
2019-02-14T14:07:50.783Z,8.53
2019-02-14T14:10:20.252Z,8.23
2019-02-14T14:12:49.588Z,8.50
2019-02-14T14:15:19.022Z,10.97
2019-02-14T14:17:48.461Z,9.37
2019-02-14T14:20:17.798Z,8.67
2019-02-14T14:22:47.209Z,7.17
2019-02-14T14:25:16.659Z,11.67
2019-02-14T14:27:46.033Z,8.90
2019-02-14T14:30:15.395Z,9.20
2019-02-14T14:32:44.885Z,13.63
2019-02-14T14:35:14.269Z,17.50
2019-02-14T14:37:43.750Z,11.20
2019-02-14T14:40:13.243Z,8.70
2019-02-14T14:43:07.570Z,6.93
2019-02-14T14:45:52.338Z,10.07
2019-02-14T14:48:22.159Z,7.57
2019-02-14T14:50:51.630Z,10.10
2019-02-14T14:53:20.994Z,12.70
2019-02-14T14:55:50.635Z,16.17
2019-02-14T14:58:19.998Z,17.20
2019-02-14T15:00:49.462Z,15.13
2019-02-14T15:03:18.792Z,18.40
2019-02-14T15:05:48.269Z,20.80
2019-02-14T15:08:17.672Z,19.80
2019-02-14T15:10:47.154Z,14.50
2019-02-14T15:13:16.504Z,13.40
2019-02-14T15:15:45.950Z,14.30
2019-02-14T15:18:15.357Z,12.53
2019-02-14T15:20:44.865Z,12.13
2019-02-14T15:23:14.313Z,11.60
2019-02-14T15:25:43.766Z,12.83
2019-02-14T15:28:13.132Z,11.13
2019-02-14T15:30:42.580Z,15.40
2019-02-14T15:33:11.919Z,24.27
2019-02-14T15:35:41.425Z,24.57
2019-02-14T15:38:11.955Z,18.33
2019-02-14T15:40:41.523Z,14.20
2019-02-14T15:43:10.961Z,20.13
2019-02-14T15:45:40.360Z,24.43
2019-02-14T15:48:09.774Z,27.83
2019-02-14T15:50:39.238Z,49.10
2019-02-14T15:53:08.583Z,16.57
2019-02-14T15:55:39.011Z,15.13
2019-02-14T15:58:09.324Z,20.13
2019-02-14T16:00:38.919Z,16.87
2019-02-14T16:03:08.341Z,19.00
2019-02-14T16:05:38.493Z,19.83
2019-02-14T16:08:08.892Z,22.50
2019-02-14T16:10:38.266Z,23.23
2019-02-14T16:13:09.783Z,22.80
2019-02-14T16:15:38.826Z,23.67
2019-02-14T16:18:08.224Z,30.90
2019-02-14T16:20:39.799Z,33.97
2019-02-14T16:23:08.965Z,34.07
2019-02-14T16:25:38.369Z,24.77
2019-02-14T16:28:09.327Z,29.43
2019-02-14T16:30:38.862Z,24.40
2019-02-14T16:33:08.266Z,31.70
2019-02-14T16:35:37.662Z,35.37
2019-02-14T16:38:07.045Z,34.53
2019-02-14T16:40:38.683Z,36.73
2019-02-14T16:43:07.571Z,33.87
2019-02-14T16:45:37.163Z,32.63
2019-02-14T16:48:06.782Z,31.40
2019-02-14T16:50:36.249Z,29.60
2019-02-14T16:53:05.686Z,32.70
2019-02-14T16:55:35.281Z,29.17
2019-02-14T16:58:04.698Z,30.77
2019-02-14T17:00:34.110Z,29.57
2019-02-14T17:03:03.545Z,30.03
2019-02-14T17:05:32.882Z,31.90
2019-02-14T17:08:02.407Z,32.10
2019-02-14T17:10:36.939Z,42.53
2019-02-14T17:13:02.856Z,40.67
2019-02-14T17:15:32.305Z,30.93
2019-02-14T17:18:01.709Z,32.17
2019-02-14T17:20:31.042Z,33.13
2019-02-14T17:23:00.446Z,33.93
2019-02-14T17:25:29.909Z,22.03
2019-02-14T17:27:59.263Z,29.77
2019-02-14T17:30:28.710Z,24.73
2019-02-14T17:32:58.115Z,26.10
2019-02-14T17:35:27.466Z,17.07
2019-02-14T17:37:57.031Z,20.67
2019-02-14T17:40:26.547Z,24.90
2019-02-14T17:42:55.876Z,22.77
2019-02-14T17:45:25.240Z,25.47
2019-02-14T17:47:54.680Z,21.93
2019-02-14T17:50:24.126Z,24.53
2019-02-14T17:52:53.567Z,20.20
2019-02-14T17:55:22.939Z,27.53
2019-02-14T17:57:54.082Z,29.33
2019-02-14T18:00:23.424Z,32.23
2019-02-14T18:02:52.870Z,22.73
2019-02-14T18:05:22.290Z,23.53
2019-02-14T18:07:51.639Z,20.33
2019-02-14T18:10:21.101Z,14.60
2019-02-14T18:12:50.929Z,18.87
2019-02-14T18:15:20.303Z,24.03
2019-02-14T18:17:49.641Z,22.37
2019-02-14T18:20:19.071Z,22.63
2019-02-14T18:22:48.502Z,18.77
2019-02-14T18:25:25.250Z,18.40
2019-02-14T18:27:54.747Z,20.67
2019-02-14T18:30:24.269Z,19.47
2019-02-14T18:32:53.844Z,23.73
2019-02-14T18:35:23.241Z,23.47
2019-02-14T18:37:52.652Z,22.53
2019-02-14T18:40:22.103Z,26.37
2019-02-14T18:42:51.470Z,23.27
2019-02-14T18:45:20.853Z,14.97
2019-02-14T18:47:50.311Z,28.27
2019-02-14T18:50:19.829Z,26.23
2019-02-14T18:52:49.392Z,19.43
2019-02-14T18:55:19.056Z,20.17
2019-02-14T18:57:48.543Z,24.30
2019-02-14T19:00:17.960Z,23.07
2019-02-14T19:02:47.425Z,39.80
2019-02-14T19:05:16.842Z,24.00
2019-02-14T19:07:46.268Z,33.67
2019-02-14T19:10:15.694Z,31.97
2019-02-14T19:12:45.096Z,32.53
2019-02-14T19:15:14.852Z,33.63
2019-02-14T19:17:44.292Z,31.67
2019-02-14T19:20:13.814Z,24.83
2019-02-14T19:22:43.245Z,25.87
2019-02-14T19:25:12.747Z,26.77
2019-02-14T19:27:42.227Z,19.47
2019-02-14T19:30:11.853Z,22.60
2019-02-14T19:32:41.317Z,23.00
2019-02-14T19:35:10.937Z,22.87
2019-02-14T19:37:40.388Z,21.20
2019-02-14T19:40:11.846Z,17.30
2019-02-14T19:42:41.858Z,23.83
2019-02-14T19:45:11.401Z,20.13
2019-02-14T19:47:41.174Z,22.23
2019-02-14T19:50:10.645Z,25.73
2019-02-14T19:52:40.258Z,19.60
2019-02-14T19:55:09.949Z,27.03
2019-02-14T19:57:39.555Z,29.90
2019-02-14T20:00:10.690Z,29.97
2019-02-14T20:02:40.120Z,32.67
2019-02-14T20:05:10.254Z,27.70
2019-02-14T20:07:39.820Z,35.43
2019-02-14T20:10:10.578Z,28.63
2019-02-14T20:12:40.333Z,29.27
2019-02-14T20:15:14.099Z,29.83
2019-02-14T20:17:43.654Z,34.97
2019-02-14T20:20:13.122Z,23.83
2019-02-14T20:22:42.531Z,23.77
2019-02-14T20:25:13.484Z,37.37
2019-02-14T20:27:42.946Z,30.97
2019-02-14T20:30:13.938Z,34.33
2019-02-14T20:32:53.805Z,28.27
2019-02-14T20:35:23.420Z,27.33
2019-02-14T20:37:52.883Z,28.33
2019-02-14T20:40:22.330Z,32.23
2019-02-14T20:42:52.039Z,20.50
2019-02-14T20:45:21.785Z,22.07
2019-02-14T20:47:51.267Z,17.17
2019-02-14T20:50:20.936Z,17.80
2019-02-14T20:52:50.371Z,19.37
2019-02-14T20:55:19.857Z,19.90
2019-02-14T20:57:49.356Z,17.73
2019-02-14T21:00:25.100Z,18.10
2019-02-14T21:02:54.639Z,20.37
2019-02-14T21:05:24.251Z,19.50
2019-02-14T21:07:53.843Z,16.07
2019-02-14T21:10:23.291Z,19.57
2019-02-14T21:12:53.010Z,17.93
2019-02-14T21:15:22.425Z,20.57
2019-02-14T21:17:51.851Z,20.00
2019-02-14T21:20:21.542Z,20.10
2019-02-14T21:22:50.973Z,21.30
2019-02-14T21:25:23.160Z,22.07
2019-02-14T21:27:51.622Z,24.67
2019-02-14T21:30:21.340Z,25.33
2019-02-14T21:32:50.735Z,24.07
2019-02-14T21:35:20.259Z,21.90
2019-02-14T21:37:49.788Z,23.00
2019-02-14T21:40:20.298Z,26.40
2019-02-14T21:42:49.945Z,23.07
2019-02-14T21:45:20.099Z,19.07
2019-02-14T21:47:49.554Z,21.53
2019-02-14T21:50:19.052Z,26.97
2019-02-14T21:52:48.545Z,21.97
2019-02-14T21:55:18.262Z,23.60
2019-02-14T21:57:47.897Z,25.17
2019-02-14T22:00:18.883Z,23.57
2019-02-14T22:02:48.925Z,24.17
2019-02-14T22:05:24.647Z,25.13
2019-02-14T22:07:49.547Z,25.03
2019-02-14T22:10:18.889Z,30.57
2019-02-14T22:12:48.365Z,27.93
2019-02-14T22:15:17.938Z,37.83
2019-02-14T22:17:47.502Z,34.40
2019-02-14T22:20:17.002Z,35.13
2019-02-14T22:22:46.322Z,35.97
2019-02-14T22:25:15.813Z,39.43
2019-02-14T22:27:45.253Z,34.77
2019-02-14T22:30:16.424Z,34.73
2019-02-14T22:32:46.168Z,34.47
2019-02-14T22:35:15.799Z,35.83
2019-02-14T22:37:45.258Z,34.73
2019-02-14T22:40:14.588Z,37.30
2019-02-14T22:42:47.633Z,37.63
2019-02-14T22:45:15.503Z,38.27
2019-02-14T22:47:45.426Z,35.57
2019-02-14T22:50:14.953Z,36.50
2019-02-14T22:52:44.357Z,37.70
2019-02-14T22:55:13.727Z,37.17
2019-02-14T22:57:43.223Z,32.93
2019-02-14T23:00:24.778Z,35.23
2019-02-14T23:02:54.201Z,35.33
2019-02-14T23:05:23.555Z,36.77
2019-02-14T23:07:53.032Z,35.60
2019-02-14T23:10:22.458Z,39.00
2019-02-14T23:12:55.731Z,41.33
2019-02-14T23:15:23.139Z,39.13
2019-02-14T23:17:52.553Z,37.90
2019-02-14T23:20:22.110Z,37.10
2019-02-14T23:22:51.510Z,36.47
2019-02-14T23:25:20.807Z,36.77
2019-02-14T23:27:50.213Z,36.73
2019-02-14T23:30:19.612Z,36.27
2019-02-14T23:32:49.050Z,34.80
2019-02-14T23:35:18.475Z,37.70
2019-02-14T23:37:47.827Z,37.83
2019-02-14T23:40:17.274Z,38.23
2019-02-14T23:42:46.627Z,35.83
2019-02-14T23:45:16.107Z,38.10
2019-02-14T23:47:45.527Z,35.00
2019-02-14T23:50:14.925Z,36.07
2019-02-14T23:52:45.073Z,35.63
2019-02-14T23:55:14.450Z,38.23
2019-02-14T23:57:43.910Z,37.17
